RYR8128 EICK-LIRP
Flight info
| Callsign | RYR8128 |
|---|---|
| Flight time | 2h 31m |
| Altitude | 37000 |
| Route | ERTER1N ERTER DCT LEDGO N160 EVCOR/N0442F370 DCT NAKID DCT LIZAD DCT JSY DCT ARSUK DCT RESMI UN491 POGZI DCT LUVAL DCT SHARA DCT DEVDI DCT ODINA DCT SRN DCT ROBAS DCT OSBUL DCT EKPAL DCT MIVKI |
| Aircraft | B738/M-SDE2E3FGHIRWXY/LB1 |
Departure
| Time | 2026-05-09 09:36 |
|---|---|
| Airport | Cork International Airport (EICK) |
Arrival
| Time | 2026-05-09 12:07 |
|---|---|
| Airport | Pisa International Airport (LIRP) |
| Time | Latitude | Longitude | Altitude | Speed | Heading |
|---|---|---|---|---|---|
| 2026-05-09 08:39 | 51.84795 | -8.49041 | 503 ft | 0 kts | 69° |
| 2026-05-09 09:24 | 51.84791 | -8.49057 | 503 ft | 4 kts | 70° |
| 2026-05-09 09:24 | 51.84782 | -8.49098 | 503 ft | 4 kts | 70° |
| 2026-05-09 09:24 | 51.84773 | -8.49138 | 503 ft | 4 kts | 76° |
| 2026-05-09 09:24 | 51.84772 | -8.49179 | 503 ft | 4 kts | 113° |
| 2026-05-09 09:25 | 51.84787 | -8.49207 | 503 ft | 4 kts | 162° |
| 2026-05-09 09:25 | 51.84794 | -8.49210 | 503 ft | 1 kts | 168° |
| 2026-05-09 09:29 | 51.84790 | -8.49209 | 503 ft | 2 kts | 168° |
| 2026-05-09 09:30 | 51.84768 | -8.49201 | 503 ft | 5 kts | 168° |
| 2026-05-09 09:30 | 51.84722 | -8.49176 | 503 ft | 9 kts | 158° |
| 2026-05-09 09:30 | 51.84656 | -8.49137 | 503 ft | 12 kts | 161° |
| 2026-05-09 09:30 | 51.84568 | -8.49085 | 503 ft | 14 kts | 159° |
| 2026-05-09 09:31 | 51.84477 | -8.49032 | 503 ft | 12 kts | 162° |
| 2026-05-09 09:31 | 51.84412 | -8.48993 | 503 ft | 10 kts | 158° |
| 2026-05-09 09:31 | 51.84353 | -8.49001 | 503 ft | 6 kts | 230° |
| 2026-05-09 09:32 | 51.84313 | -8.49122 | 503 ft | 6 kts | 242° |
| 2026-05-09 09:32 | 51.84290 | -8.49182 | 503 ft | 7 kts | 219° |
| 2026-05-09 09:32 | 51.84240 | -8.49176 | 503 ft | 9 kts | 161° |
| 2026-05-09 09:32 | 51.84168 | -8.49140 | 503 ft | 13 kts | 162° |
| 2026-05-09 09:33 | 51.84073 | -8.49088 | 503 ft | 16 kts | 156° |
| 2026-05-09 09:33 | 51.83959 | -8.49012 | 503 ft | 20 kts | 160° |
| 2026-05-09 09:33 | 51.83817 | -8.48929 | 503 ft | 23 kts | 160° |
| 2026-05-09 09:33 | 51.83654 | -8.48831 | 503 ft | 27 kts | 156° |
| 2026-05-09 09:34 | 51.83470 | -8.48719 | 503 ft | 30 kts | 160° |
| 2026-05-09 09:34 | 51.83331 | -8.48636 | 503 ft | 13 kts | 156° |
| 2026-05-09 09:34 | 51.83287 | -8.48541 | 503 ft | 10 kts | 129° |
| 2026-05-09 09:36 | 51.86128 | -8.50247 | 1871 ft | 150 kts | 353° |
| 2026-05-09 09:36 | 51.87185 | -8.50737 | 2546 ft | 169 kts | 353° |
| 2026-05-09 09:36 | 51.88414 | -8.50908 | 2995 ft | 187 kts | 20° |
| 2026-05-09 09:37 | 51.89475 | -8.49634 | 3275 ft | 205 kts | 61° |
| 2026-05-09 09:37 | 51.89711 | -8.47304 | 3927 ft | 221 kts | 96° |
| 2026-05-09 09:37 | 51.89208 | -8.44936 | 4913 ft | 227 kts | 115° |
| 2026-05-09 09:37 | 51.88502 | -8.42557 | 5467 ft | 244 kts | 108° |
| 2026-05-09 09:38 | 51.87923 | -8.39872 | 6080 ft | 257 kts | 109° |
| 2026-05-09 09:38 | 51.87259 | -8.37167 | 6897 ft | 263 kts | 111° |
| 2026-05-09 09:38 | 51.86569 | -8.34386 | 7692 ft | 267 kts | 111° |
| 2026-05-09 09:38 | 51.85871 | -8.31555 | 8474 ft | 273 kts | 111° |
| 2026-05-09 09:39 | 51.85164 | -8.28667 | 9261 ft | 280 kts | 111° |
| 2026-05-09 09:39 | 51.84350 | -8.25770 | 9996 ft | 287 kts | 124° |
| 2026-05-09 09:39 | 51.82999 | -8.23365 | 10608 ft | 297 kts | 137° |
| 2026-05-09 09:39 | 51.81453 | -8.20939 | 10790 ft | 322 kts | 135° |
| 2026-05-09 09:40 | 51.79839 | -8.18309 | 11257 ft | 335 kts | 135° |
| 2026-05-09 09:40 | 51.78194 | -8.15584 | 11929 ft | 341 kts | 135° |
| 2026-05-09 09:40 | 51.76535 | -8.12819 | 12673 ft | 346 kts | 135° |
| 2026-05-09 09:40 | 51.74859 | -8.10021 | 13482 ft | 348 kts | 135° |
| 2026-05-09 09:41 | 51.73077 | -8.07345 | 14103 ft | 354 kts | 147° |
| 2026-05-09 09:41 | 51.70799 | -8.05940 | 14749 ft | 352 kts | 175° |
| 2026-05-09 09:41 | 51.68362 | -8.05858 | 15543 ft | 351 kts | 182° |
| 2026-05-09 09:41 | 51.65938 | -8.05923 | 16175 ft | 356 kts | 181° |
| 2026-05-09 09:42 | 51.63447 | -8.05973 | 16841 ft | 359 kts | 181° |
| 2026-05-09 09:42 | 51.60951 | -8.05999 | 17588 ft | 361 kts | 181° |
| 2026-05-09 09:42 | 51.58428 | -8.05988 | 18254 ft | 364 kts | 178° |
| 2026-05-09 09:42 | 51.55958 | -8.05065 | 18819 ft | 371 kts | 154° |
| 2026-05-09 09:43 | 51.53866 | -8.02623 | 19420 ft | 374 kts | 138° |
| 2026-05-09 09:43 | 51.51998 | -7.99741 | 20178 ft | 371 kts | 136° |
| 2026-05-09 09:43 | 51.50119 | -7.96799 | 20837 ft | 372 kts | 136° |
| 2026-05-09 09:43 | 51.48285 | -7.93926 | 21411 ft | 375 kts | 136° |
| 2026-05-09 09:44 | 51.46402 | -7.90994 | 21900 ft | 380 kts | 136° |
| 2026-05-09 09:44 | 51.44479 | -7.88021 | 22352 ft | 385 kts | 136° |
| 2026-05-09 09:44 | 51.42560 | -7.85067 | 23109 ft | 382 kts | 137° |
| 2026-05-09 09:44 | 51.40630 | -7.82109 | 23546 ft | 389 kts | 136° |
| 2026-05-09 09:45 | 51.38662 | -7.79099 | 23945 ft | 393 kts | 137° |
| 2026-05-09 09:45 | 51.36683 | -7.76080 | 24512 ft | 392 kts | 137° |
| 2026-05-09 09:45 | 51.34710 | -7.73072 | 24996 ft | 393 kts | 137° |
| 2026-05-09 09:45 | 51.32706 | -7.70021 | 25202 ft | 402 kts | 137° |
| 2026-05-09 09:46 | 51.30680 | -7.66941 | 25710 ft | 401 kts | 137° |
| 2026-05-09 09:46 | 51.28664 | -7.63877 | 26203 ft | 403 kts | 137° |
| 2026-05-09 09:46 | 51.26615 | -7.60767 | 26391 ft | 411 kts | 137° |
| 2026-05-09 09:46 | 51.24530 | -7.57611 | 26724 ft | 415 kts | 137° |
| 2026-05-09 09:47 | 51.22436 | -7.54446 | 27250 ft | 413 kts | 137° |
| 2026-05-09 09:47 | 51.20347 | -7.51294 | 27676 ft | 415 kts | 137° |
| 2026-05-09 09:47 | 51.18239 | -7.48117 | 27995 ft | 420 kts | 137° |
| 2026-05-09 09:47 | 51.16104 | -7.44903 | 28278 ft | 425 kts | 137° |
| 2026-05-09 09:48 | 51.13951 | -7.41666 | 28726 ft | 425 kts | 137° |
| 2026-05-09 09:48 | 51.11792 | -7.38422 | 29076 ft | 429 kts | 138° |
| 2026-05-09 09:48 | 51.09620 | -7.35163 | 29486 ft | 430 kts | 138° |
| 2026-05-09 09:48 | 51.07433 | -7.31885 | 29833 ft | 433 kts | 138° |
| 2026-05-09 09:49 | 51.05235 | -7.28597 | 30143 ft | 436 kts | 138° |
| 2026-05-09 09:49 | 51.03021 | -7.25288 | 30436 ft | 438 kts | 137° |
| 2026-05-09 09:49 | 51.00796 | -7.21966 | 30747 ft | 439 kts | 138° |
| 2026-05-09 09:49 | 50.98583 | -7.18666 | 31253 ft | 435 kts | 137° |
| 2026-05-09 09:50 | 50.96406 | -7.15424 | 31687 ft | 432 kts | 138° |
| 2026-05-09 09:50 | 50.94239 | -7.12178 | 32399 ft | 423 kts | 137° |
| 2026-05-09 09:50 | 50.92309 | -7.08736 | 33188 ft | 415 kts | 129° |
| 2026-05-09 09:50 | 50.90596 | -7.05037 | 33462 ft | 418 kts | 128° |
| 2026-05-09 09:51 | 50.88852 | -7.01238 | 33565 ft | 424 kts | 128° |
| 2026-05-09 09:51 | 50.87122 | -6.97485 | 34060 ft | 419 kts | 128° |
| 2026-05-09 09:51 | 50.85397 | -6.93766 | 34339 ft | 419 kts | 129° |
| 2026-05-09 09:51 | 50.83662 | -6.90051 | 34553 ft | 420 kts | 129° |
| 2026-05-09 09:52 | 50.81922 | -6.86346 | 34837 ft | 420 kts | 129° |
| 2026-05-09 09:52 | 50.80168 | -6.82626 | 34980 ft | 422 kts | 129° |
| 2026-05-09 09:52 | 50.78416 | -6.78923 | 35323 ft | 420 kts | 129° |
| 2026-05-09 09:53 | 50.74898 | -6.71503 | 35673 ft | 423 kts | 130° |
| 2026-05-09 09:53 | 50.73148 | -6.67817 | 36183 ft | 417 kts | 129° |
| 2026-05-09 09:53 | 50.71406 | -6.64156 | 36410 ft | 417 kts | 129° |
| 2026-05-09 09:53 | 50.69637 | -6.60443 | 36605 ft | 419 kts | 129° |
| 2026-05-09 09:54 | 50.67902 | -6.56810 | 36714 ft | 422 kts | 129° |
| 2026-05-09 09:54 | 50.66129 | -6.53103 | 36835 ft | 424 kts | 129° |
| 2026-05-09 09:54 | 50.64354 | -6.49394 | 37000 ft | 426 kts | 129° |
| 2026-05-09 09:55 | 50.60757 | -6.41895 | 37082 ft | 432 kts | 129° |
| 2026-05-09 09:55 | 50.57119 | -6.34328 | 37079 ft | 434 kts | 129° |
| 2026-05-09 09:56 | 50.53475 | -6.26770 | 37072 ft | 434 kts | 129° |
| 2026-05-09 09:56 | 50.49828 | -6.19227 | 37071 ft | 433 kts | 129° |
| 2026-05-09 09:57 | 50.46185 | -6.11717 | 37069 ft | 432 kts | 129° |
| 2026-05-09 09:57 | 50.42543 | -6.04230 | 37067 ft | 431 kts | 129° |
| 2026-05-09 09:58 | 50.38906 | -5.96775 | 37059 ft | 430 kts | 129° |
| 2026-05-09 09:58 | 50.35265 | -5.89334 | 37050 ft | 429 kts | 129° |
| 2026-05-09 09:59 | 50.31631 | -5.81926 | 37042 ft | 429 kts | 130° |
| 2026-05-09 09:59 | 50.27999 | -5.74543 | 37037 ft | 428 kts | 130° |
| 2026-05-09 10:00 | 50.24363 | -5.67175 | 37028 ft | 428 kts | 130° |
| 2026-05-09 10:00 | 50.20750 | -5.59873 | 37059 ft | 428 kts | 130° |
| 2026-05-09 10:01 | 50.17102 | -5.52522 | 37059 ft | 428 kts | 130° |
| 2026-05-09 10:01 | 50.13445 | -5.45172 | 37055 ft | 429 kts | 130° |
| 2026-05-09 10:02 | 50.09783 | -5.37831 | 37048 ft | 429 kts | 130° |
| 2026-05-09 10:02 | 50.06110 | -5.30490 | 37046 ft | 430 kts | 130° |
| 2026-05-09 10:03 | 50.02433 | -5.23161 | 37050 ft | 430 kts | 130° |
| 2026-05-09 10:03 | 49.98747 | -5.15835 | 37049 ft | 430 kts | 130° |
| 2026-05-09 10:04 | 49.95059 | -5.08524 | 37047 ft | 430 kts | 130° |
| 2026-05-09 10:04 | 49.91370 | -5.01232 | 37044 ft | 429 kts | 131° |
| 2026-05-09 10:05 | 49.87679 | -4.93956 | 37052 ft | 429 kts | 131° |
| 2026-05-09 10:05 | 49.83983 | -4.86691 | 37043 ft | 429 kts | 131° |
| 2026-05-09 10:06 | 49.80289 | -4.79448 | 37048 ft | 428 kts | 131° |
| 2026-05-09 10:06 | 49.76590 | -4.72214 | 37040 ft | 428 kts | 131° |
| 2026-05-09 10:07 | 49.72890 | -4.64998 | 37041 ft | 428 kts | 131° |
| 2026-05-09 10:07 | 49.69371 | -4.57604 | 37034 ft | 430 kts | 126° |
| 2026-05-09 10:08 | 49.66156 | -4.49812 | 37023 ft | 430 kts | 126° |
| 2026-05-09 10:08 | 49.62905 | -4.42059 | 37036 ft | 430 kts | 126° |
| 2026-05-09 10:09 | 49.59684 | -4.34266 | 37021 ft | 434 kts | 120° |
| 2026-05-09 10:09 | 49.57775 | -4.25402 | 37046 ft | 440 kts | 105° |
| 2026-05-09 10:10 | 49.56443 | -4.16196 | 37040 ft | 441 kts | 106° |
| 2026-05-09 10:10 | 49.55067 | -4.06981 | 37034 ft | 442 kts | 106° |
| 2026-05-09 10:11 | 49.53897 | -3.99316 | 37028 ft | 443 kts | 107° |
| 2026-05-09 10:11 | 49.52474 | -3.90091 | 37032 ft | 443 kts | 107° |
| 2026-05-09 10:12 | 49.51042 | -3.80870 | 37030 ft | 443 kts | 107° |
| 2026-05-09 10:12 | 49.49601 | -3.71642 | 37029 ft | 443 kts | 107° |
| 2026-05-09 10:13 | 49.48154 | -3.62426 | 37029 ft | 443 kts | 107° |
| 2026-05-09 10:13 | 49.46704 | -3.53237 | 37014 ft | 442 kts | 107° |
| 2026-05-09 10:14 | 49.45248 | -3.44064 | 37026 ft | 441 kts | 107° |
| 2026-05-09 10:14 | 49.43786 | -3.34906 | 37033 ft | 441 kts | 107° |
| 2026-05-09 10:15 | 49.42321 | -3.25775 | 37034 ft | 440 kts | 107° |
| 2026-05-09 10:15 | 49.40847 | -3.16646 | 37033 ft | 440 kts | 107° |
| 2026-05-09 10:16 | 49.39379 | -3.07594 | 37020 ft | 440 kts | 108° |
| 2026-05-09 10:16 | 49.37885 | -2.98441 | 37031 ft | 439 kts | 108° |
| 2026-05-09 10:17 | 49.36404 | -2.89410 | 37031 ft | 439 kts | 108° |
| 2026-05-09 10:17 | 49.34906 | -2.80326 | 37025 ft | 439 kts | 108° |
| 2026-05-09 10:18 | 49.33400 | -2.71242 | 37023 ft | 440 kts | 108° |
| 2026-05-09 10:18 | 49.31888 | -2.62170 | 37014 ft | 439 kts | 108° |
| 2026-05-09 10:19 | 49.30367 | -2.53095 | 37021 ft | 439 kts | 108° |
| 2026-05-09 10:19 | 49.28841 | -2.44036 | 37023 ft | 439 kts | 108° |
| 2026-05-09 10:20 | 49.27307 | -2.34973 | 37013 ft | 440 kts | 108° |
| 2026-05-09 10:20 | 49.25766 | -2.25920 | 37027 ft | 439 kts | 108° |
| 2026-05-09 10:21 | 49.24220 | -2.16876 | 37014 ft | 439 kts | 108° |
| 2026-05-09 10:21 | 49.22665 | -2.07831 | 37021 ft | 439 kts | 109° |
| 2026-05-09 10:22 | 49.21158 | -1.98758 | 37018 ft | 441 kts | 107° |
| 2026-05-09 10:22 | 49.19773 | -1.89628 | 37022 ft | 441 kts | 107° |
| 2026-05-09 10:23 | 49.18392 | -1.80493 | 37018 ft | 441 kts | 107° |
| 2026-05-09 10:23 | 49.16991 | -1.71374 | 37026 ft | 440 kts | 107° |
| 2026-05-09 10:24 | 49.15574 | -1.62274 | 37019 ft | 440 kts | 107° |
| 2026-05-09 10:24 | 49.14147 | -1.53171 | 37012 ft | 440 kts | 107° |
| 2026-05-09 10:25 | 49.12723 | -1.44145 | 37019 ft | 440 kts | 107° |
| 2026-05-09 10:25 | 49.11284 | -1.35065 | 37026 ft | 440 kts | 108° |
| 2026-05-09 10:26 | 49.09839 | -1.26000 | 37011 ft | 439 kts | 108° |
| 2026-05-09 10:26 | 49.08387 | -1.16942 | 37019 ft | 439 kts | 108° |
| 2026-05-09 10:27 | 49.06929 | -1.07895 | 36997 ft | 440 kts | 108° |
| 2026-05-09 10:27 | 49.05463 | -0.98845 | 37011 ft | 440 kts | 108° |
| 2026-05-09 10:28 | 49.03989 | -0.89795 | 37018 ft | 440 kts | 108° |
| 2026-05-09 10:28 | 49.02506 | -0.80741 | 37010 ft | 441 kts | 108° |
| 2026-05-09 10:29 | 49.01015 | -0.71683 | 37018 ft | 441 kts | 108° |
| 2026-05-09 10:29 | 48.99515 | -0.62625 | 37020 ft | 441 kts | 108° |
| 2026-05-09 10:30 | 48.98006 | -0.53559 | 37019 ft | 442 kts | 108° |
| 2026-05-09 10:30 | 48.96488 | -0.44483 | 37024 ft | 443 kts | 108° |
| 2026-05-09 10:31 | 48.94962 | -0.35409 | 37018 ft | 443 kts | 108° |
| 2026-05-09 10:31 | 48.93428 | -0.26336 | 37017 ft | 443 kts | 108° |
| 2026-05-09 10:32 | 48.91889 | -0.17277 | 37016 ft | 442 kts | 108° |
| 2026-05-09 10:32 | 48.90342 | -0.08227 | 37006 ft | 442 kts | 108° |
| 2026-05-09 10:33 | 48.88801 | 0.00747 | 36988 ft | 442 kts | 109° |
| 2026-05-09 10:33 | 48.87245 | 0.09763 | 37004 ft | 441 kts | 109° |
| 2026-05-09 10:34 | 48.85683 | 0.18765 | 37010 ft | 441 kts | 109° |
| 2026-05-09 10:34 | 48.83327 | 0.32260 | 37007 ft | 441 kts | 109° |
| 2026-05-09 10:35 | 48.81748 | 0.41245 | 37008 ft | 440 kts | 109° |
| 2026-05-09 10:35 | 48.80165 | 0.50215 | 36999 ft | 440 kts | 109° |
| 2026-05-09 10:36 | 48.78575 | 0.59180 | 37002 ft | 440 kts | 109° |
| 2026-05-09 10:36 | 48.76979 | 0.68147 | 37006 ft | 441 kts | 108° |
| 2026-05-09 10:37 | 48.75693 | 0.77258 | 37011 ft | 443 kts | 104° |
| 2026-05-09 10:37 | 48.74579 | 0.86449 | 37003 ft | 444 kts | 104° |
| 2026-05-09 10:38 | 48.73447 | 0.95629 | 37003 ft | 443 kts | 104° |
| 2026-05-09 10:38 | 48.72277 | 1.04802 | 37005 ft | 444 kts | 105° |
| 2026-05-09 10:39 | 48.71085 | 1.13981 | 37006 ft | 444 kts | 105° |
| 2026-05-09 10:39 | 48.69884 | 1.23156 | 36998 ft | 445 kts | 105° |
| 2026-05-09 10:40 | 48.68676 | 1.32333 | 36980 ft | 445 kts | 105° |
| 2026-05-09 10:40 | 48.67462 | 1.41506 | 36989 ft | 445 kts | 105° |
| 2026-05-09 10:41 | 48.66249 | 1.50609 | 36999 ft | 444 kts | 105° |
| 2026-05-09 10:41 | 48.65020 | 1.59767 | 37000 ft | 445 kts | 105° |
| 2026-05-09 10:42 | 48.63783 | 1.68928 | 36990 ft | 445 kts | 105° |
| 2026-05-09 10:42 | 48.62539 | 1.78092 | 36990 ft | 444 kts | 105° |
| 2026-05-09 10:43 | 48.61289 | 1.87238 | 36991 ft | 445 kts | 105° |
| 2026-05-09 10:43 | 48.60030 | 1.96389 | 37014 ft | 445 kts | 105° |
| 2026-05-09 10:44 | 48.58765 | 2.05533 | 37017 ft | 445 kts | 105° |
| 2026-05-09 10:44 | 48.57491 | 2.14693 | 37014 ft | 446 kts | 105° |
| 2026-05-09 10:46 | 48.56302 | 2.38138 | 37013 ft | 451 kts | 95° |
| 2026-05-09 10:46 | 48.56063 | 2.47592 | 37015 ft | 451 kts | 96° |
| 2026-05-09 10:47 | 48.55781 | 2.57041 | 37023 ft | 451 kts | 96° |
| 2026-05-09 10:47 | 48.55490 | 2.66485 | 37017 ft | 450 kts | 96° |
| 2026-05-09 10:48 | 48.55195 | 2.75862 | 37021 ft | 450 kts | 96° |
| 2026-05-09 10:48 | 48.54890 | 2.85302 | 36996 ft | 450 kts | 96° |
| 2026-05-09 10:49 | 48.54580 | 2.94730 | 37004 ft | 450 kts | 96° |
| 2026-05-09 10:49 | 48.53948 | 3.04088 | 36987 ft | 447 kts | 102° |
| 2026-05-09 10:50 | 48.52895 | 3.13324 | 36996 ft | 446 kts | 103° |
| 2026-05-09 10:50 | 48.51824 | 3.22535 | 37005 ft | 446 kts | 103° |
| 2026-05-09 10:51 | 48.50798 | 3.31761 | 37003 ft | 446 kts | 102° |
| 2026-05-09 10:51 | 48.49792 | 3.40982 | 37013 ft | 446 kts | 102° |
| 2026-05-09 10:52 | 48.48785 | 3.50210 | 37004 ft | 445 kts | 102° |
| 2026-05-09 10:52 | 48.47771 | 3.59413 | 37014 ft | 445 kts | 102° |
| 2026-05-09 10:53 | 48.46749 | 3.68616 | 37014 ft | 445 kts | 102° |
| 2026-05-09 10:53 | 48.45720 | 3.77802 | 37034 ft | 444 kts | 102° |
| 2026-05-09 10:54 | 48.44685 | 3.86976 | 37038 ft | 444 kts | 103° |
| 2026-05-09 10:54 | 48.43642 | 3.96145 | 37047 ft | 444 kts | 103° |
| 2026-05-09 10:55 | 48.42594 | 4.05300 | 37046 ft | 444 kts | 103° |
| 2026-05-09 10:55 | 48.41539 | 4.14443 | 37044 ft | 444 kts | 103° |
| 2026-05-09 10:56 | 48.40476 | 4.23591 | 37040 ft | 444 kts | 103° |
| 2026-05-09 10:56 | 48.39413 | 4.32672 | 37016 ft | 443 kts | 103° |
| 2026-05-09 10:57 | 48.38338 | 4.41800 | 37016 ft | 443 kts | 103° |
| 2026-05-09 10:57 | 48.37254 | 4.50925 | 37015 ft | 443 kts | 103° |
| 2026-05-09 10:58 | 48.36164 | 4.60049 | 37009 ft | 443 kts | 103° |
| 2026-05-09 10:58 | 48.35066 | 4.69161 | 37008 ft | 443 kts | 103° |
| 2026-05-09 10:59 | 48.33962 | 4.78273 | 37005 ft | 443 kts | 103° |
| 2026-05-09 10:59 | 48.32849 | 4.87389 | 37012 ft | 444 kts | 103° |
| 2026-05-09 11:00 | 48.31728 | 4.96511 | 37025 ft | 444 kts | 103° |
| 2026-05-09 11:00 | 48.30598 | 5.05651 | 37029 ft | 445 kts | 103° |
| 2026-05-09 11:01 | 48.29458 | 5.14801 | 37029 ft | 446 kts | 104° |
| 2026-05-09 11:01 | 48.27885 | 5.23790 | 37027 ft | 445 kts | 110° |
| 2026-05-09 11:02 | 48.26328 | 5.31154 | 37027 ft | 445 kts | 110° |
| 2026-05-09 11:02 | 48.24455 | 5.40027 | 37027 ft | 447 kts | 110° |
| 2026-05-09 11:03 | 48.22622 | 5.48931 | 37037 ft | 447 kts | 110° |
| 2026-05-09 11:03 | 48.20803 | 5.57856 | 37023 ft | 448 kts | 109° |
| 2026-05-09 11:04 | 48.18984 | 5.66772 | 37039 ft | 448 kts | 109° |
| 2026-05-09 11:04 | 48.17154 | 5.75690 | 37058 ft | 448 kts | 109° |
| 2026-05-09 11:05 | 48.15316 | 5.84602 | 37062 ft | 448 kts | 110° |
| 2026-05-09 11:05 | 48.13471 | 5.93509 | 37061 ft | 448 kts | 110° |
| 2026-05-09 11:06 | 48.11619 | 6.02406 | 37047 ft | 448 kts | 109° |
| 2026-05-09 11:06 | 48.09760 | 6.11300 | 37058 ft | 448 kts | 109° |
| 2026-05-09 11:07 | 48.07893 | 6.20189 | 37054 ft | 448 kts | 109° |
| 2026-05-09 11:07 | 48.06016 | 6.29092 | 37049 ft | 449 kts | 110° |
| 2026-05-09 11:08 | 48.04133 | 6.37986 | 37051 ft | 449 kts | 110° |
| 2026-05-09 11:08 | 48.02239 | 6.46890 | 37073 ft | 450 kts | 110° |
| 2026-05-09 11:09 | 48.00347 | 6.55747 | 37066 ft | 451 kts | 110° |
| 2026-05-09 11:09 | 47.98432 | 6.64682 | 37070 ft | 453 kts | 110° |
| 2026-05-09 11:10 | 47.96327 | 6.73531 | 37058 ft | 452 kts | 114° |
| 2026-05-09 11:10 | 47.93911 | 6.82272 | 37057 ft | 453 kts | 115° |
| 2026-05-09 11:11 | 47.91510 | 6.90903 | 37074 ft | 454 kts | 114° |
| 2026-05-09 11:11 | 47.89113 | 6.99637 | 37077 ft | 456 kts | 114° |
| 2026-05-09 11:12 | 47.86717 | 7.08397 | 37075 ft | 457 kts | 114° |
| 2026-05-09 11:12 | 47.84310 | 7.17177 | 37065 ft | 458 kts | 114° |
| 2026-05-09 11:13 | 47.81894 | 7.25944 | 37061 ft | 459 kts | 114° |
| 2026-05-09 11:13 | 47.79469 | 7.34714 | 37076 ft | 459 kts | 114° |
| 2026-05-09 11:14 | 47.77033 | 7.43500 | 37069 ft | 460 kts | 114° |
| 2026-05-09 11:14 | 47.74323 | 7.52073 | 37059 ft | 456 kts | 129° |
| 2026-05-09 11:14 | 47.72187 | 7.55487 | 37093 ft | 449 kts | 144° |
| 2026-05-09 11:15 | 47.69614 | 7.58029 | 37067 ft | 443 kts | 158° |
| 2026-05-09 11:15 | 47.64023 | 7.61855 | 37077 ft | 443 kts | 159° |
| 2026-05-09 11:16 | 47.58412 | 7.65699 | 37072 ft | 445 kts | 158° |
| 2026-05-09 11:16 | 47.52791 | 7.69607 | 37065 ft | 447 kts | 159° |
| 2026-05-09 11:17 | 47.47161 | 7.73544 | 37073 ft | 448 kts | 158° |
| 2026-05-09 11:17 | 47.41526 | 7.77483 | 37067 ft | 449 kts | 159° |
| 2026-05-09 11:18 | 47.35883 | 7.81418 | 37053 ft | 448 kts | 159° |
| 2026-05-09 11:18 | 47.30260 | 7.85329 | 37068 ft | 447 kts | 159° |
| 2026-05-09 11:19 | 47.24634 | 7.89229 | 37063 ft | 447 kts | 159° |
| 2026-05-09 11:19 | 47.19010 | 7.93119 | 37060 ft | 447 kts | 159° |
| 2026-05-09 11:20 | 47.13387 | 7.96999 | 37066 ft | 447 kts | 159° |
| 2026-05-09 11:20 | 47.07761 | 8.00874 | 37056 ft | 446 kts | 160° |
| 2026-05-09 11:21 | 47.02136 | 8.04738 | 37062 ft | 446 kts | 160° |
| 2026-05-09 11:21 | 46.96472 | 8.08620 | 37079 ft | 447 kts | 160° |
| 2026-05-09 11:22 | 46.90912 | 8.12422 | 37066 ft | 448 kts | 160° |
| 2026-05-09 11:22 | 46.85270 | 8.16268 | 37056 ft | 447 kts | 161° |
| 2026-05-09 11:23 | 46.79623 | 8.20112 | 37116 ft | 449 kts | 161° |
| 2026-05-09 11:23 | 46.73956 | 8.23951 | 37088 ft | 452 kts | 161° |
| 2026-05-09 11:24 | 46.68238 | 8.27824 | 37084 ft | 453 kts | 161° |
| 2026-05-09 11:24 | 46.62533 | 8.31688 | 37087 ft | 453 kts | 161° |
| 2026-05-09 11:25 | 46.56811 | 8.35551 | 37084 ft | 453 kts | 162° |
| 2026-05-09 11:25 | 46.51112 | 8.39386 | 37077 ft | 451 kts | 162° |
| 2026-05-09 11:26 | 46.45435 | 8.43193 | 37094 ft | 447 kts | 162° |
| 2026-05-09 11:26 | 46.39806 | 8.46973 | 37081 ft | 446 kts | 163° |
| 2026-05-09 11:27 | 46.34168 | 8.50665 | 37092 ft | 447 kts | 162° |
| 2026-05-09 11:27 | 46.28486 | 8.54495 | 37095 ft | 453 kts | 162° |
| 2026-05-09 11:28 | 46.22758 | 8.58326 | 37096 ft | 452 kts | 162° |
| 2026-05-09 11:28 | 46.17039 | 8.62123 | 37081 ft | 453 kts | 162° |
| 2026-05-09 11:29 | 46.11307 | 8.65919 | 37066 ft | 454 kts | 162° |
| 2026-05-09 11:29 | 46.05665 | 8.70062 | 37087 ft | 457 kts | 158° |
| 2026-05-09 11:30 | 46.00097 | 8.74513 | 37068 ft | 457 kts | 158° |
| 2026-05-09 11:30 | 45.94528 | 8.78934 | 37076 ft | 457 kts | 159° |
| 2026-05-09 11:31 | 45.88940 | 8.83305 | 37083 ft | 457 kts | 159° |
| 2026-05-09 11:31 | 45.83343 | 8.87654 | 37080 ft | 457 kts | 159° |
| 2026-05-09 11:32 | 45.77759 | 8.91984 | 37079 ft | 455 kts | 159° |
| 2026-05-09 11:32 | 45.72184 | 8.96300 | 37079 ft | 455 kts | 159° |
| 2026-05-09 11:33 | 45.66630 | 9.00608 | 37082 ft | 455 kts | 156° |
| 2026-05-09 11:33 | 45.59563 | 9.09923 | 37066 ft | 471 kts | 137° |
| 2026-05-09 11:34 | 45.55213 | 9.16902 | 37077 ft | 470 kts | 138° |
| 2026-05-09 11:34 | 45.50816 | 9.23817 | 37078 ft | 471 kts | 138° |
| 2026-05-09 11:35 | 45.46397 | 9.30713 | 37079 ft | 471 kts | 138° |
| 2026-05-09 11:35 | 45.41966 | 9.37617 | 37125 ft | 473 kts | 139° |
| 2026-05-09 11:36 | 45.37522 | 9.44529 | 37122 ft | 474 kts | 139° |
| 2026-05-09 11:36 | 45.33056 | 9.51457 | 36785 ft | 478 kts | 139° |
| 2026-05-09 11:37 | 45.30823 | 9.54920 | 36483 ft | 471 kts | 139° |
| 2026-05-09 11:37 | 45.28617 | 9.58339 | 36080 ft | 467 kts | 139° |
| 2026-05-09 11:37 | 45.26430 | 9.61721 | 35709 ft | 464 kts | 139° |
| 2026-05-09 11:37 | 45.24251 | 9.65082 | 35312 ft | 460 kts | 140° |
| 2026-05-09 11:38 | 45.22092 | 9.68411 | 34923 ft | 458 kts | 140° |
| 2026-05-09 11:38 | 45.19940 | 9.71723 | 34549 ft | 455 kts | 140° |
| 2026-05-09 11:38 | 45.17800 | 9.75015 | 34177 ft | 453 kts | 140° |
| 2026-05-09 11:38 | 45.15674 | 9.78288 | 33721 ft | 451 kts | 140° |
| 2026-05-09 11:39 | 45.13544 | 9.81565 | 33341 ft | 447 kts | 140° |
| 2026-05-09 11:39 | 45.11463 | 9.84767 | 32963 ft | 444 kts | 140° |
| 2026-05-09 11:39 | 45.09379 | 9.87968 | 32601 ft | 440 kts | 140° |
| 2026-05-09 11:40 | 45.05254 | 9.94292 | 31877 ft | 434 kts | 139° |
| 2026-05-09 11:40 | 45.03209 | 9.97421 | 31521 ft | 431 kts | 139° |
| 2026-05-09 11:40 | 45.01181 | 10.00520 | 31182 ft | 429 kts | 139° |
| 2026-05-09 11:40 | 44.99183 | 10.03569 | 30819 ft | 427 kts | 139° |
| 2026-05-09 11:41 | 44.97172 | 10.06636 | 30474 ft | 424 kts | 139° |
| 2026-05-09 11:41 | 44.95168 | 10.09688 | 30075 ft | 423 kts | 138° |
| 2026-05-09 11:41 | 44.93171 | 10.12727 | 29650 ft | 421 kts | 138° |
| 2026-05-09 11:41 | 44.91187 | 10.15744 | 29278 ft | 418 kts | 138° |
| 2026-05-09 11:42 | 44.89216 | 10.18739 | 28908 ft | 415 kts | 138° |
| 2026-05-09 11:42 | 44.87252 | 10.21719 | 28527 ft | 413 kts | 138° |
| 2026-05-09 11:42 | 44.85289 | 10.24653 | 28170 ft | 408 kts | 142° |
| 2026-05-09 11:42 | 44.83010 | 10.26842 | 27802 ft | 388 kts | 167° |
| 2026-05-09 11:43 | 44.80466 | 10.27689 | 27490 ft | 370 kts | 182° |
| 2026-05-09 11:43 | 44.77941 | 10.27652 | 27079 ft | 357 kts | 197° |
| 2026-05-09 11:43 | 44.75561 | 10.26863 | 26738 ft | 349 kts | 203° |
| 2026-05-09 11:43 | 44.73230 | 10.25937 | 26371 ft | 348 kts | 203° |
| 2026-05-09 11:44 | 44.70910 | 10.25001 | 26010 ft | 346 kts | 203° |
| 2026-05-09 11:44 | 44.68595 | 10.24076 | 25675 ft | 345 kts | 203° |
| 2026-05-09 11:44 | 44.66287 | 10.23165 | 25344 ft | 344 kts | 202° |
| 2026-05-09 11:44 | 44.63980 | 10.22262 | 25002 ft | 344 kts | 202° |
| 2026-05-09 11:45 | 44.61677 | 10.21366 | 24665 ft | 343 kts | 202° |
| 2026-05-09 11:45 | 44.59378 | 10.20476 | 24338 ft | 343 kts | 202° |
| 2026-05-09 11:45 | 44.57078 | 10.19588 | 23992 ft | 343 kts | 202° |
| 2026-05-09 11:45 | 44.54778 | 10.18700 | 23627 ft | 343 kts | 202° |
| 2026-05-09 11:46 | 44.52476 | 10.17812 | 23230 ft | 343 kts | 201° |
| 2026-05-09 11:46 | 44.50180 | 10.16933 | 22871 ft | 342 kts | 201° |
| 2026-05-09 11:46 | 44.47889 | 10.16053 | 22512 ft | 341 kts | 201° |
| 2026-05-09 11:46 | 44.45597 | 10.15220 | 22175 ft | 340 kts | 200° |
| 2026-05-09 11:47 | 44.43308 | 10.14409 | 21806 ft | 339 kts | 200° |
| 2026-05-09 11:47 | 44.41029 | 10.13620 | 21476 ft | 336 kts | 200° |
| 2026-05-09 11:47 | 44.38768 | 10.12822 | 21125 ft | 335 kts | 200° |
| 2026-05-09 11:47 | 44.36506 | 10.12026 | 20779 ft | 335 kts | 200° |
| 2026-05-09 11:48 | 44.34246 | 10.11230 | 20434 ft | 335 kts | 200° |
| 2026-05-09 11:48 | 44.31989 | 10.10432 | 20081 ft | 334 kts | 200° |
| 2026-05-09 11:48 | 44.29761 | 10.09642 | 19751 ft | 335 kts | 199° |
| 2026-05-09 11:48 | 44.27503 | 10.08846 | 19374 ft | 335 kts | 200° |
| 2026-05-09 11:49 | 44.25246 | 10.08056 | 19034 ft | 334 kts | 199° |
| 2026-05-09 11:49 | 44.22972 | 10.07319 | 18655 ft | 339 kts | 193° |
| 2026-05-09 11:49 | 44.20580 | 10.07522 | 18166 ft | 355 kts | 169° |
| 2026-05-09 11:49 | 44.18214 | 10.08515 | 17747 ft | 355 kts | 168° |
| 2026-05-09 11:50 | 44.15838 | 10.09407 | 17378 ft | 353 kts | 169° |
| 2026-05-09 11:50 | 44.13468 | 10.10259 | 17021 ft | 351 kts | 170° |
| 2026-05-09 11:50 | 44.11106 | 10.11097 | 16714 ft | 348 kts | 169° |
| 2026-05-09 11:50 | 44.08777 | 10.11925 | 16453 ft | 343 kts | 169° |
| 2026-05-09 11:51 | 44.07221 | 10.12479 | 16306 ft | 339 kts | 169° |
| 2026-05-09 11:51 | 44.04990 | 10.13282 | 16202 ft | 324 kts | 169° |
| 2026-05-09 11:51 | 44.02841 | 10.14073 | 15838 ft | 316 kts | 168° |
| 2026-05-09 11:51 | 44.00753 | 10.14843 | 15352 ft | 314 kts | 168° |
| 2026-05-09 11:52 | 43.98644 | 10.15618 | 14874 ft | 312 kts | 168° |
| 2026-05-09 11:52 | 43.96559 | 10.16384 | 14506 ft | 307 kts | 168° |
| 2026-05-09 11:52 | 43.94517 | 10.17134 | 14154 ft | 301 kts | 168° |
| 2026-05-09 11:52 | 43.92509 | 10.17870 | 13693 ft | 298 kts | 168° |
| 2026-05-09 11:53 | 43.90508 | 10.18602 | 13212 ft | 296 kts | 168° |
| 2026-05-09 11:53 | 43.88505 | 10.19130 | 12732 ft | 291 kts | 176° |
| 2026-05-09 11:53 | 43.86495 | 10.19310 | 12275 ft | 288 kts | 179° |
| 2026-05-09 11:53 | 43.84503 | 10.19433 | 11806 ft | 286 kts | 179° |
| 2026-05-09 11:54 | 43.82563 | 10.19562 | 11373 ft | 283 kts | 178° |
| 2026-05-09 11:54 | 43.80637 | 10.19709 | 10939 ft | 281 kts | 178° |
| 2026-05-09 11:54 | 43.78699 | 10.19870 | 10514 ft | 278 kts | 178° |
| 2026-05-09 11:54 | 43.76776 | 10.20040 | 10101 ft | 275 kts | 177° |
| 2026-05-09 11:55 | 43.74877 | 10.20214 | 9678 ft | 272 kts | 177° |
| 2026-05-09 11:56 | 43.66283 | 10.20190 | 8302 ft | 233 kts | 216° |
| 2026-05-09 11:56 | 43.65051 | 10.18762 | 7957 ft | 231 kts | 217° |
| 2026-05-09 11:56 | 43.63753 | 10.17430 | 7542 ft | 232 kts | 214° |
| 2026-05-09 11:57 | 43.62457 | 10.16124 | 7201 ft | 230 kts | 215° |
| 2026-05-09 11:57 | 43.61154 | 10.14803 | 6854 ft | 234 kts | 215° |
| 2026-05-09 11:57 | 43.59859 | 10.13484 | 6694 ft | 229 kts | 214° |
| 2026-05-09 11:57 | 43.58578 | 10.12177 | 6446 ft | 229 kts | 214° |
| 2026-05-09 11:58 | 43.57295 | 10.10868 | 6204 ft | 229 kts | 214° |
| 2026-05-09 11:58 | 43.56082 | 10.09628 | 5982 ft | 228 kts | 214° |
| 2026-05-09 11:58 | 43.54836 | 10.08356 | 5750 ft | 228 kts | 214° |
| 2026-05-09 11:58 | 43.53564 | 10.07058 | 5510 ft | 227 kts | 214° |
| 2026-05-09 11:59 | 43.52296 | 10.05764 | 5281 ft | 226 kts | 214° |
| 2026-05-09 11:59 | 43.51032 | 10.04475 | 5046 ft | 226 kts | 214° |
| 2026-05-09 11:59 | 43.49774 | 10.03193 | 4828 ft | 225 kts | 214° |
| 2026-05-09 11:59 | 43.48478 | 10.02004 | 4580 ft | 222 kts | 200° |
| 2026-05-09 12:00 | 43.46987 | 10.01860 | 4287 ft | 217 kts | 158° |
| 2026-05-09 12:00 | 43.45876 | 10.03156 | 4067 ft | 215 kts | 115° |
| 2026-05-09 12:00 | 43.45744 | 10.05162 | 4051 ft | 223 kts | 74° |
| 2026-05-09 12:00 | 43.46630 | 10.06947 | 4025 ft | 228 kts | 46° |
| 2026-05-09 12:01 | 43.47589 | 10.08635 | 3883 ft | 229 kts | 64° |
| 2026-05-09 12:01 | 43.48340 | 10.10615 | 3569 ft | 233 kts | 62° |
| 2026-05-09 12:01 | 43.49148 | 10.12505 | 3412 ft | 225 kts | 61° |
| 2026-05-09 12:01 | 43.49931 | 10.14313 | 3270 ft | 215 kts | 62° |
| 2026-05-09 12:02 | 43.50669 | 10.16037 | 3150 ft | 204 kts | 62° |
| 2026-05-09 12:02 | 43.51365 | 10.17680 | 3064 ft | 197 kts | 62° |
| 2026-05-09 12:02 | 43.52052 | 10.19317 | 3000 ft | 197 kts | 62° |
| 2026-05-09 12:02 | 43.52736 | 10.20950 | 2897 ft | 198 kts | 62° |
| 2026-05-09 12:03 | 43.53428 | 10.22608 | 2832 ft | 200 kts | 62° |
| 2026-05-09 12:03 | 43.54117 | 10.24257 | 2750 ft | 194 kts | 61° |
| 2026-05-09 12:03 | 43.54951 | 10.25658 | 2619 ft | 188 kts | 34° |
| 2026-05-09 12:03 | 43.56065 | 10.26550 | 2568 ft | 186 kts | 36° |
| 2026-05-09 12:04 | 43.57049 | 10.27718 | 2497 ft | 185 kts | 43° |
| 2026-05-09 12:04 | 43.58070 | 10.28794 | 2261 ft | 183 kts | 36° |
| 2026-05-09 12:04 | 43.59095 | 10.29818 | 2024 ft | 181 kts | 37° |
| 2026-05-09 12:04 | 43.60095 | 10.30848 | 1772 ft | 179 kts | 37° |
| 2026-05-09 12:05 | 43.61077 | 10.31866 | 1570 ft | 175 kts | 37° |
| 2026-05-09 12:05 | 43.62044 | 10.32868 | 1344 ft | 171 kts | 37° |
| 2026-05-09 12:05 | 43.62986 | 10.33843 | 1139 ft | 169 kts | 37° |
| 2026-05-09 12:05 | 43.63920 | 10.34812 | 890 ft | 167 kts | 37° |
| 2026-05-09 12:06 | 43.64843 | 10.35768 | 703 ft | 164 kts | 36° |
| 2026-05-09 12:06 | 43.65764 | 10.36722 | 435 ft | 163 kts | 36° |
| 2026-05-09 12:06 | 43.66658 | 10.37651 | 269 ft | 161 kts | 35° |
| 2026-05-09 12:06 | 43.67573 | 10.38587 | 40 ft | 165 kts | 33° |
| 2026-05-09 12:07 | 43.68420 | 10.39459 | 11 ft | 136 kts | 34° |
| 2026-05-09 12:07 | 43.69045 | 10.40107 | 8 ft | 85 kts | 37° |
| 2026-05-09 12:07 | 43.69236 | 10.40311 | 8 ft | 9 kts | 27° |
| 2026-05-09 12:07 | 43.69289 | 10.40275 | 8 ft | 9 kts | 311° |
| 2026-05-09 12:08 | 43.69327 | 10.40205 | 10 ft | 9 kts | 307° |
| 2026-05-09 12:08 | 43.69367 | 10.40139 | 10 ft | 9 kts | 317° |
| 2026-05-09 12:08 | 43.69417 | 10.40097 | 11 ft | 9 kts | 352° |
| 2026-05-09 12:08 | 43.69476 | 10.40087 | 10 ft | 8 kts | 352° |
| 2026-05-09 12:09 | 43.69532 | 10.40076 | 10 ft | 8 kts | 352° |
| 2026-05-09 12:09 | 43.69587 | 10.40065 | 10 ft | 8 kts | 352° |
| 2026-05-09 12:09 | 43.69640 | 10.40054 | 11 ft | 8 kts | 352° |
| 2026-05-09 12:10 | 43.69742 | 10.40031 | 10 ft | 2 kts | 9° |
| 2026-05-09 12:10 | 43.69747 | 10.40032 | 10 ft | 0 kts | 9° |